sensor_id;sensor_type;location;lat;lon;timestamp;temperature;humidity
57058;DHT22;55017;52.848;6.748;2022-10-26T00:00:00;10.40;99.90
57058;DHT22;55017;52.848;6.748;2022-10-26T00:02:25;10.40;99.90
57058;DHT22;55017;52.848;6.748;2022-10-26T00:04:51;10.30;99.90
57058;DHT22;55017;52.848;6.748;2022-10-26T00:07:16;10.30;99.90
57058;DHT22;55017;52.848;6.748;2022-10-26T00:09:42;10.20;99.90
57058;DHT22;55017;52.848;6.748;2022-10-26T00:12:08;10.20;99.90
57058;DHT22;55017;52.848;6.748;2022-10-26T00:14:33;10.30;99.90
57058;DHT22;55017;52.848;6.748;2022-10-26T00:16:59;10.20;99.90
57058;DHT22;55017;52.848;6.748;2022-10-26T00:19:25;10.30;99.90
57058;DHT22;55017;52.848;6.748;2022-10-26T00:21:51;10.20;99.90
57058;DHT22;55017;52.848;6.748;2022-10-26T00:24:16;10.20;99.90
57058;DHT22;55017;52.848;6.748;2022-10-26T00:26:42;10.10;99.90
57058;DHT22;55017;52.848;6.748;2022-10-26T00:29:10;10.10;99.90
57058;DHT22;55017;52.848;6.748;2022-10-26T00:31:36;10.30;99.90
57058;DHT22;55017;52.848;6.748;2022-10-26T00:34:01;10.10;99.90
57058;DHT22;55017;52.848;6.748;2022-10-26T00:36:27;10.20;99.90
57058;DHT22;55017;52.848;6.748;2022-10-26T00:38:54;10.10;99.90
57058;DHT22;55017;52.848;6.748;2022-10-26T00:41:23;10.20;99.90
57058;DHT22;55017;52.848;6.748;2022-10-26T00:43:49;10.10;99.90
57058;DHT22;55017;52.848;6.748;2022-10-26T00:46:22;10.10;99.90
57058;DHT22;55017;52.848;6.748;2022-10-26T00:49:04;10.00;99.90
57058;DHT22;55017;52.848;6.748;2022-10-26T00:51:37;10.00;99.90
57058;DHT22;55017;52.848;6.748;2022-10-26T00:54:06;9.90;99.90
57058;DHT22;55017;52.848;6.748;2022-10-26T00:56:34;9.90;99.90
57058;DHT22;55017;52.848;6.748;2022-10-26T00:59:04;10.00;99.90
57058;DHT22;55017;52.848;6.748;2022-10-26T01:01:32;9.90;99.90
57058;DHT22;55017;52.848;6.748;2022-10-26T01:04:00;9.90;99.90
57058;DHT22;55017;52.848;6.748;2022-10-26T01:06:28;9.90;99.90
57058;DHT22;55017;52.848;6.748;2022-10-26T01:08:54;9.90;99.90
57058;DHT22;55017;52.848;6.748;2022-10-26T01:11:20;9.80;99.90
57058;DHT22;55017;52.848;6.748;2022-10-26T01:13:45;9.80;99.90
57058;DHT22;55017;52.848;6.748;2022-10-26T01:22:21;9.60;99.90
57058;DHT22;55017;52.848;6.748;2022-10-26T01:24:52;9.60;99.90
57058;DHT22;55017;52.848;6.748;2022-10-26T01:27:31;9.70;99.90
57058;DHT22;55017;52.848;6.748;2022-10-26T01:30:14;9.80;99.90
57058;DHT22;55017;52.848;6.748;2022-10-26T01:32:49;9.70;99.90
57058;DHT22;55017;52.848;6.748;2022-10-26T01:35:33;9.60;99.90
57058;DHT22;55017;52.848;6.748;2022-10-26T01:40:39;9.50;99.90
57058;DHT22;55017;52.848;6.748;2022-10-26T01:43:08;9.50;99.90
57058;DHT22;55017;52.848;6.748;2022-10-26T01:45:38;9.50;99.90
57058;DHT22;55017;52.848;6.748;2022-10-26T01:48:05;9.50;99.90
57058;DHT22;55017;52.848;6.748;2022-10-26T01:50:31;9.50;99.90
57058;DHT22;55017;52.848;6.748;2022-10-26T01:52:58;9.50;99.90
57058;DHT22;55017;52.848;6.748;2022-10-26T01:59:06;9.50;99.90
57058;DHT22;55017;52.848;6.748;2022-10-26T02:01:41;9.50;99.90
57058;DHT22;55017;52.848;6.748;2022-10-26T02:07:23;9.30;99.90
57058;DHT22;55017;52.848;6.748;2022-10-26T02:15:15;9.30;99.90
57058;DHT22;55017;52.848;6.748;2022-10-26T02:17:58;9.30;99.90
57058;DHT22;55017;52.848;6.748;2022-10-26T02:20:30;9.30;99.90
57058;DHT22;55017;52.848;6.748;2022-10-26T02:23:02;9.30;99.90
57058;DHT22;55017;52.848;6.748;2022-10-26T02:25:31;9.30;99.90
57058;DHT22;55017;52.848;6.748;2022-10-26T02:28:07;9.30;99.90
57058;DHT22;55017;52.848;6.748;2022-10-26T02:30:35;9.30;99.90
57058;DHT22;55017;52.848;6.748;2022-10-26T02:33:04;9.30;99.90
57058;DHT22;55017;52.848;6.748;2022-10-26T02:35:33;9.30;99.90
57058;DHT22;55017;52.848;6.748;2022-10-26T02:38:00;9.30;99.90
57058;DHT22;55017;52.848;6.748;2022-10-26T02:40:27;9.30;99.90
57058;DHT22;55017;52.848;6.748;2022-10-26T02:42:56;9.30;99.90
57058;DHT22;55017;52.848;6.748;2022-10-26T02:45:26;9.30;99.90
57058;DHT22;55017;52.848;6.748;2022-10-26T02:47:53;9.30;99.90
57058;DHT22;55017;52.848;6.748;2022-10-26T02:50:23;9.40;99.90
57058;DHT22;55017;52.848;6.748;2022-10-26T02:53:00;9.40;99.90
57058;DHT22;55017;52.848;6.748;2022-10-26T02:55:34;9.40;99.90
57058;DHT22;55017;52.848;6.748;2022-10-26T02:58:04;9.40;99.90
57058;DHT22;55017;52.848;6.748;2022-10-26T03:00:31;9.50;99.90
57058;DHT22;55017;52.848;6.748;2022-10-26T03:02:58;9.50;99.90
57058;DHT22;55017;52.848;6.748;2022-10-26T03:05:26;9.40;99.90
57058;DHT22;55017;52.848;6.748;2022-10-26T03:07:52;9.50;99.90
57058;DHT22;55017;52.848;6.748;2022-10-26T03:10:19;9.40;99.90
57058;DHT22;55017;52.848;6.748;2022-10-26T03:12:44;9.40;99.90
57058;DHT22;55017;52.848;6.748;2022-10-26T03:15:10;9.50;99.90
57058;DHT22;55017;52.848;6.748;2022-10-26T03:17:36;9.60;99.90
57058;DHT22;55017;52.848;6.748;2022-10-26T03:20:02;9.60;99.90
57058;DHT22;55017;52.848;6.748;2022-10-26T03:22:28;9.50;99.90
57058;DHT22;55017;52.848;6.748;2022-10-26T03:24:54;9.60;99.90
57058;DHT22;55017;52.848;6.748;2022-10-26T03:27:19;9.60;99.90
57058;DHT22;55017;52.848;6.748;2022-10-26T03:29:45;9.70;99.90
57058;DHT22;55017;52.848;6.748;2022-10-26T03:32:11;9.60;99.90
57058;DHT22;55017;52.848;6.748;2022-10-26T03:34:36;9.70;99.90
57058;DHT22;55017;52.848;6.748;2022-10-26T03:37:02;9.70;99.90
57058;DHT22;55017;52.848;6.748;2022-10-26T03:39:28;9.60;99.90
57058;DHT22;55017;52.848;6.748;2022-10-26T03:41:53;9.60;99.90
57058;DHT22;55017;52.848;6.748;2022-10-26T03:44:20;9.60;99.90
57058;DHT22;55017;52.848;6.748;2022-10-26T03:46:46;9.60;99.90
57058;DHT22;55017;52.848;6.748;2022-10-26T03:49:11;9.60;99.90
57058;DHT22;55017;52.848;6.748;2022-10-26T03:51:37;9.60;99.90
57058;DHT22;55017;52.848;6.748;2022-10-26T03:54:03;9.60;99.90
57058;DHT22;55017;52.848;6.748;2022-10-26T03:56:29;9.60;99.90
57058;DHT22;55017;52.848;6.748;2022-10-26T03:58:54;9.60;99.90
57058;DHT22;55017;52.848;6.748;2022-10-26T04:01:20;9.60;99.90
57058;DHT22;55017;52.848;6.748;2022-10-26T04:03:45;9.60;99.90
57058;DHT22;55017;52.848;6.748;2022-10-26T04:06:11;9.70;99.90
57058;DHT22;55017;52.848;6.748;2022-10-26T04:08:37;9.60;99.90
57058;DHT22;55017;52.848;6.748;2022-10-26T04:11:02;9.60;99.90
57058;DHT22;55017;52.848;6.748;2022-10-26T04:13:28;9.60;99.90
57058;DHT22;55017;52.848;6.748;2022-10-26T04:15:53;9.60;99.90
57058;DHT22;55017;52.848;6.748;2022-10-26T04:18:19;9.60;99.90
57058;DHT22;55017;52.848;6.748;2022-10-26T04:20:44;9.60;99.90
57058;DHT22;55017;52.848;6.748;2022-10-26T04:23:12;9.70;99.90
57058;DHT22;55017;52.848;6.748;2022-10-26T04:25:38;9.60;99.90
57058;DHT22;55017;52.848;6.748;2022-10-26T04:28:05;9.60;99.90
57058;DHT22;55017;52.848;6.748;2022-10-26T04:30:31;9.70;99.90
57058;DHT22;55017;52.848;6.748;2022-10-26T04:32:57;9.60;99.90
57058;DHT22;55017;52.848;6.748;2022-10-26T04:35:23;9.70;99.90
57058;DHT22;55017;52.848;6.748;2022-10-26T04:37:49;9.70;99.90
57058;DHT22;55017;52.848;6.748;2022-10-26T04:40:15;9.70;99.90
57058;DHT22;55017;52.848;6.748;2022-10-26T04:42:42;9.80;99.90
57058;DHT22;55017;52.848;6.748;2022-10-26T04:45:08;9.90;99.90
57058;DHT22;55017;52.848;6.748;2022-10-26T04:47:34;9.80;99.90
57058;DHT22;55017;52.848;6.748;2022-10-26T04:50:00;9.80;99.90
57058;DHT22;55017;52.848;6.748;2022-10-26T04:52:26;9.80;99.90
57058;DHT22;55017;52.848;6.748;2022-10-26T04:54:51;10.00;99.90
57058;DHT22;55017;52.848;6.748;2022-10-26T04:57:17;9.90;99.90
57058;DHT22;55017;52.848;6.748;2022-10-26T04:59:43;10.00;99.90
57058;DHT22;55017;52.848;6.748;2022-10-26T05:02:08;10.00;99.90
57058;DHT22;55017;52.848;6.748;2022-10-26T05:04:34;10.00;99.90
57058;DHT22;55017;52.848;6.748;2022-10-26T05:06:59;10.10;99.90
57058;DHT22;55017;52.848;6.748;2022-10-26T05:09:25;10.10;99.90
57058;DHT22;55017;52.848;6.748;2022-10-26T05:11:50;10.10;99.90
57058;DHT22;55017;52.848;6.748;2022-10-26T05:14:16;10.20;99.90
57058;DHT22;55017;52.848;6.748;2022-10-26T05:16:41;10.30;99.90
57058;DHT22;55017;52.848;6.748;2022-10-26T05:19:09;10.20;99.90
57058;DHT22;55017;52.848;6.748;2022-10-26T05:21:35;10.20;99.90
57058;DHT22;55017;52.848;6.748;2022-10-26T05:24:00;10.20;99.90
57058;DHT22;55017;52.848;6.748;2022-10-26T05:26:26;10.20;99.90
57058;DHT22;55017;52.848;6.748;2022-10-26T05:28:52;10.20;99.90
57058;DHT22;55017;52.848;6.748;2022-10-26T05:31:18;10.30;99.90
57058;DHT22;55017;52.848;6.748;2022-10-26T05:33:43;10.30;99.90
57058;DHT22;55017;52.848;6.748;2022-10-26T05:36:12;10.30;99.90
57058;DHT22;55017;52.848;6.748;2022-10-26T05:38:38;10.20;99.90
57058;DHT22;55017;52.848;6.748;2022-10-26T05:41:03;10.20;99.90
57058;DHT22;55017;52.848;6.748;2022-10-26T05:43:29;10.20;99.90
57058;DHT22;55017;52.848;6.748;2022-10-26T05:45:54;10.30;99.90
57058;DHT22;55017;52.848;6.748;2022-10-26T05:48:20;10.30;99.90
57058;DHT22;55017;52.848;6.748;2022-10-26T05:50:46;10.20;99.90
57058;DHT22;55017;52.848;6.748;2022-10-26T05:53:12;10.40;99.90
57058;DHT22;55017;52.848;6.748;2022-10-26T05:55:38;10.40;99.90
57058;DHT22;55017;52.848;6.748;2022-10-26T05:58:09;10.30;99.90
57058;DHT22;55017;52.848;6.748;2022-10-26T06:00:35;10.30;99.90
57058;DHT22;55017;52.848;6.748;2022-10-26T06:08:09;10.30;99.90
57058;DHT22;55017;52.848;6.748;2022-10-26T06:10:36;10.30;99.90
57058;DHT22;55017;52.848;6.748;2022-10-26T06:13:02;10.40;99.90
57058;DHT22;55017;52.848;6.748;2022-10-26T06:15:29;10.50;99.90
57058;DHT22;55017;52.848;6.748;2022-10-26T06:20:54;10.40;99.90
57058;DHT22;55017;52.848;6.748;2022-10-26T06:23:50;10.40;99.90
57058;DHT22;55017;52.848;6.748;2022-10-26T06:29:10;10.40;99.90
57058;DHT22;55017;52.848;6.748;2022-10-26T06:31:38;10.40;99.90
57058;DHT22;55017;52.848;6.748;2022-10-26T06:34:04;10.50;99.90
57058;DHT22;55017;52.848;6.748;2022-10-26T06:36:30;10.40;99.90
57058;DHT22;55017;52.848;6.748;2022-10-26T06:39:02;10.60;99.90
57058;DHT22;55017;52.848;6.748;2022-10-26T06:41:33;10.60;99.90
57058;DHT22;55017;52.848;6.748;2022-10-26T06:44:00;10.50;99.90
57058;DHT22;55017;52.848;6.748;2022-10-26T06:51:57;10.60;99.90
57058;DHT22;55017;52.848;6.748;2022-10-26T06:56:52;10.60;99.90
57058;DHT22;55017;52.848;6.748;2022-10-26T06:59:29;10.50;99.90
57058;DHT22;55017;52.848;6.748;2022-10-26T07:01:55;10.60;99.90
57058;DHT22;55017;52.848;6.748;2022-10-26T07:04:21;10.50;99.90
57058;DHT22;55017;52.848;6.748;2022-10-26T07:06:46;10.70;99.90
57058;DHT22;55017;52.848;6.748;2022-10-26T07:09:12;10.70;99.90
57058;DHT22;55017;52.848;6.748;2022-10-26T07:11:37;10.70;99.90
57058;DHT22;55017;52.848;6.748;2022-10-26T07:14:03;10.70;99.90
57058;DHT22;55017;52.848;6.748;2022-10-26T07:16:28;10.70;99.90
57058;DHT22;55017;52.848;6.748;2022-10-26T07:18:54;10.70;99.90
57058;DHT22;55017;52.848;6.748;2022-10-26T07:21:20;10.60;99.90
57058;DHT22;55017;52.848;6.748;2022-10-26T07:23:45;10.70;99.90
57058;DHT22;55017;52.848;6.748;2022-10-26T07:26:11;10.60;99.90
57058;DHT22;55017;52.848;6.748;2022-10-26T07:28:36;10.80;99.90
57058;DHT22;55017;52.848;6.748;2022-10-26T07:31:02;10.80;99.90
57058;DHT22;55017;52.848;6.748;2022-10-26T07:33:29;10.90;99.90
57058;DHT22;55017;52.848;6.748;2022-10-26T07:35:58;11.00;99.90
57058;DHT22;55017;52.848;6.748;2022-10-26T07:38:23;11.10;99.90
57058;DHT22;55017;52.848;6.748;2022-10-26T07:40:49;11.20;99.90
57058;DHT22;55017;52.848;6.748;2022-10-26T07:43:15;11.30;99.90
57058;DHT22;55017;52.848;6.748;2022-10-26T07:45:40;11.40;99.90
57058;DHT22;55017;52.848;6.748;2022-10-26T07:48:06;11.50;99.90
57058;DHT22;55017;52.848;6.748;2022-10-26T07:50:32;11.50;99.90
57058;DHT22;55017;52.848;6.748;2022-10-26T07:52:58;11.60;99.90
57058;DHT22;55017;52.848;6.748;2022-10-26T07:55:25;11.80;99.90
57058;DHT22;55017;52.848;6.748;2022-10-26T07:57:53;11.90;99.90
57058;DHT22;55017;52.848;6.748;2022-10-26T08:00:19;12.20;99.90
57058;DHT22;55017;52.848;6.748;2022-10-26T08:02:44;12.00;99.90
57058;DHT22;55017;52.848;6.748;2022-10-26T08:05:10;12.20;99.90
57058;DHT22;55017;52.848;6.748;2022-10-26T08:07:40;12.20;99.90
57058;DHT22;55017;52.848;6.748;2022-10-26T08:10:07;12.30;99.90
57058;DHT22;55017;52.848;6.748;2022-10-26T08:12:33;12.30;99.90
57058;DHT22;55017;52.848;6.748;2022-10-26T08:14:58;12.40;99.90
57058;DHT22;55017;52.848;6.748;2022-10-26T08:17:24;12.50;99.90
57058;DHT22;55017;52.848;6.748;2022-10-26T08:19:49;12.60;99.90
57058;DHT22;55017;52.848;6.748;2022-10-26T08:22:15;12.70;99.90
57058;DHT22;55017;52.848;6.748;2022-10-26T08:24:40;12.90;99.90
57058;DHT22;55017;52.848;6.748;2022-10-26T08:27:08;13.00;99.90
57058;DHT22;55017;52.848;6.748;2022-10-26T08:29:34;13.10;99.90
57058;DHT22;55017;52.848;6.748;2022-10-26T08:31:59;13.30;99.90
57058;DHT22;55017;52.848;6.748;2022-10-26T08:34:25;13.40;99.90
57058;DHT22;55017;52.848;6.748;2022-10-26T08:36:50;13.50;99.90
57058;DHT22;55017;52.848;6.748;2022-10-26T08:39:16;13.60;99.90
57058;DHT22;55017;52.848;6.748;2022-10-26T08:41:43;14.60;99.90
57058;DHT22;55017;52.848;6.748;2022-10-26T08:44:23;14.80;99.90
57058;DHT22;55017;52.848;6.748;2022-10-26T08:46:54;14.50;99.90
57058;DHT22;55017;52.848;6.748;2022-10-26T08:49:29;14.30;99.90
57058;DHT22;55017;52.848;6.748;2022-10-26T08:51:59;14.20;99.90
57058;DHT22;55017;52.848;6.748;2022-10-26T08:54:38;14.00;99.90
57058;DHT22;55017;52.848;6.748;2022-10-26T08:57:25;14.10;99.90
57058;DHT22;55017;52.848;6.748;2022-10-26T08:59:59;14.20;99.90
57058;DHT22;55017;52.848;6.748;2022-10-26T09:02:25;14.40;99.90
57058;DHT22;55017;52.848;6.748;2022-10-26T09:04:52;14.60;99.90
57058;DHT22;55017;52.848;6.748;2022-10-26T09:07:39;14.90;99.90
57058;DHT22;55017;52.848;6.748;2022-10-26T09:12:58;15.30;99.90
57058;DHT22;55017;52.848;6.748;2022-10-26T09:15:48;15.40;99.90
57058;DHT22;55017;52.848;6.748;2022-10-26T09:26:54;16.00;99.90
57058;DHT22;55017;52.848;6.748;2022-10-26T09:29:28;16.20;99.90
57058;DHT22;55017;52.848;6.748;2022-10-26T09:31:56;16.40;99.90
57058;DHT22;55017;52.848;6.748;2022-10-26T09:34:30;16.50;99.90
57058;DHT22;55017;52.848;6.748;2022-10-26T09:36:57;16.60;99.90
57058;DHT22;55017;52.848;6.748;2022-10-26T09:39:32;16.60;99.90
57058;DHT22;55017;52.848;6.748;2022-10-26T09:42:19;16.70;99.90
57058;DHT22;55017;52.848;6.748;2022-10-26T09:45:17;16.80;99.90
57058;DHT22;55017;52.848;6.748;2022-10-26T09:47:48;16.90;99.90
57058;DHT22;55017;52.848;6.748;2022-10-26T09:50:27;17.00;99.90
57058;DHT22;55017;52.848;6.748;2022-10-26T09:52:54;17.10;99.90
57058;DHT22;55017;52.848;6.748;2022-10-26T09:55:20;17.10;99.90
57058;DHT22;55017;52.848;6.748;2022-10-26T09:57:50;17.10;99.90
57058;DHT22;55017;52.848;6.748;2022-10-26T10:00:19;16.90;99.90
57058;DHT22;55017;52.848;6.748;2022-10-26T10:02:54;16.90;99.90
57058;DHT22;55017;52.848;6.748;2022-10-26T10:07:50;16.60;99.90
57058;DHT22;55017;52.848;6.748;2022-10-26T10:10:22;16.70;99.90
57058;DHT22;55017;52.848;6.748;2022-10-26T10:12:49;16.70;99.90
57058;DHT22;55017;52.848;6.748;2022-10-26T10:15:20;16.70;99.90
57058;DHT22;55017;52.848;6.748;2022-10-26T10:17:50;16.70;99.90
57058;DHT22;55017;52.848;6.748;2022-10-26T10:20:22;16.80;99.90
57058;DHT22;55017;52.848;6.748;2022-10-26T10:22:55;16.80;99.90
57058;DHT22;55017;52.848;6.748;2022-10-26T10:25:26;17.00;99.90
57058;DHT22;55017;52.848;6.748;2022-10-26T10:27:52;17.30;99.90
57058;DHT22;55017;52.848;6.748;2022-10-26T10:30:28;17.30;99.90
57058;DHT22;55017;52.848;6.748;2022-10-26T10:33:10;17.50;99.90
57058;DHT22;55017;52.848;6.748;2022-10-26T10:35:38;17.50;99.90
57058;DHT22;55017;52.848;6.748;2022-10-26T10:38:19;17.60;99.90
57058;DHT22;55017;52.848;6.748;2022-10-26T10:40:52;17.70;99.90
57058;DHT22;55017;52.848;6.748;2022-10-26T10:43:19;17.90;99.90
57058;DHT22;55017;52.848;6.748;2022-10-26T10:45:47;18.10;99.90
57058;DHT22;55017;52.848;6.748;2022-10-26T10:48:19;18.30;99.90
57058;DHT22;55017;52.848;6.748;2022-10-26T10:50:59;18.60;99.90
57058;DHT22;55017;52.848;6.748;2022-10-26T10:53:35;18.90;99.90
57058;DHT22;55017;52.848;6.748;2022-10-26T10:59:20;19.30;99.90
57058;DHT22;55017;52.848;6.748;2022-10-26T11:07:32;19.90;99.90
57058;DHT22;55017;52.848;6.748;2022-10-26T11:10:02;20.00;99.90
57058;DHT22;55017;52.848;6.748;2022-10-26T11:12:46;19.90;99.90
57058;DHT22;55017;52.848;6.748;2022-10-26T11:15:17;20.00;99.90
57058;DHT22;55017;52.848;6.748;2022-10-26T11:17:55;20.10;99.90
57058;DHT22;55017;52.848;6.748;2022-10-26T11:20:26;20.30;99.90
57058;DHT22;55017;52.848;6.748;2022-10-26T11:25:33;21.60;98.80
57058;DHT22;55017;52.848;6.748;2022-10-26T11:28:13;22.80;95.60
57058;DHT22;55017;52.848;6.748;2022-10-26T11:30:46;24.30;89.90
57058;DHT22;55017;52.848;6.748;2022-10-26T11:33:40;25.70;81.60
57058;DHT22;55017;52.848;6.748;2022-10-26T11:36:14;26.30;74.80
57058;DHT22;55017;52.848;6.748;2022-10-26T11:39:04;25.90;73.40
57058;DHT22;55017;52.848;6.748;2022-10-26T11:41:44;26.00;72.20
57058;DHT22;55017;52.848;6.748;2022-10-26T11:48:03;26.30;69.10
57058;DHT22;55017;52.848;6.748;2022-10-26T11:50:14;26.20;69.70
57058;DHT22;55017;52.848;6.748;2022-10-26T11:53:11;26.40;69.10
57058;DHT22;55017;52.848;6.748;2022-10-26T11:55:40;26.70;69.00
57058;DHT22;55017;52.848;6.748;2022-10-26T11:58:08;27.60;67.70
57058;DHT22;55017;52.848;6.748;2022-10-26T12:00:47;28.20;63.70
57058;DHT22;55017;52.848;6.748;2022-10-26T12:03:17;29.00;61.40
57058;DHT22;55017;52.848;6.748;2022-10-26T12:05:47;28.50;59.70
57058;DHT22;55017;52.848;6.748;2022-10-26T12:10:48;27.10;62.50
57058;DHT22;55017;52.848;6.748;2022-10-26T12:13:20;27.60;62.10
57058;DHT22;55017;52.848;6.748;2022-10-26T12:16:06;27.70;59.50
57058;DHT22;55017;52.848;6.748;2022-10-26T12:18:36;27.70;60.10
57058;DHT22;55017;52.848;6.748;2022-10-26T12:21:06;26.90;61.50
57058;DHT22;55017;52.848;6.748;2022-10-26T12:23:38;25.80;63.20
57058;DHT22;55017;52.848;6.748;2022-10-26T12:29:12;24.00;69.00
57058;DHT22;55017;52.848;6.748;2022-10-26T12:34:25;23.20;73.10
57058;DHT22;55017;52.848;6.748;2022-10-26T12:37:21;23.30;74.20
57058;DHT22;55017;52.848;6.748;2022-10-26T12:39:47;23.00;77.00
57058;DHT22;55017;52.848;6.748;2022-10-26T12:52:58;21.90;87.30
57058;DHT22;55017;52.848;6.748;2022-10-26T12:58:32;21.50;90.90
57058;DHT22;55017;52.848;6.748;2022-10-26T13:06:01;21.00;93.80
57058;DHT22;55017;52.848;6.748;2022-10-26T13:08:51;20.90;94.70
57058;DHT22;55017;52.848;6.748;2022-10-26T13:11:27;20.90;96.20
57058;DHT22;55017;52.848;6.748;2022-10-26T13:14:02;20.80;96.10
57058;DHT22;55017;52.848;6.748;2022-10-26T13:16:28;20.70;97.30
57058;DHT22;55017;52.848;6.748;2022-10-26T13:18:55;20.60;97.70
57058;DHT22;55017;52.848;6.748;2022-10-26T13:21:22;20.60;98.80
57058;DHT22;55017;52.848;6.748;2022-10-26T13:26:30;20.40;99.90
57058;DHT22;55017;52.848;6.748;2022-10-26T13:29:01;20.20;99.90
57058;DHT22;55017;52.848;6.748;2022-10-26T13:36:44;19.90;99.90
57058;DHT22;55017;52.848;6.748;2022-10-26T13:41:46;19.80;99.90
57058;DHT22;55017;52.848;6.748;2022-10-26T13:45:04;19.70;99.90
57058;DHT22;55017;52.848;6.748;2022-10-26T13:47:26;19.60;99.90
57058;DHT22;55017;52.848;6.748;2022-10-26T13:49:55;19.60;99.90
57058;DHT22;55017;52.848;6.748;2022-10-26T13:52:33;19.60;99.90
57058;DHT22;55017;52.848;6.748;2022-10-26T13:55:08;19.60;99.90
57058;DHT22;55017;52.848;6.748;2022-10-26T13:57:42;19.70;99.90
57058;DHT22;55017;52.848;6.748;2022-10-26T14:00:20;19.70;99.90
57058;DHT22;55017;52.848;6.748;2022-10-26T14:02:46;19.60;99.90
57058;DHT22;55017;52.848;6.748;2022-10-26T14:05:15;19.50;99.90
57058;DHT22;55017;52.848;6.748;2022-10-26T14:07:58;19.40;99.90
57058;DHT22;55017;52.848;6.748;2022-10-26T14:10:40;19.40;99.90
57058;DHT22;55017;52.848;6.748;2022-10-26T14:13:09;19.30;99.90
57058;DHT22;55017;52.848;6.748;2022-10-26T14:15:42;19.30;99.90
57058;DHT22;55017;52.848;6.748;2022-10-26T14:18:26;19.30;99.90
57058;DHT22;55017;52.848;6.748;2022-10-26T14:20:59;19.40;99.90
57058;DHT22;55017;52.848;6.748;2022-10-26T14:23:27;19.30;99.90
57058;DHT22;55017;52.848;6.748;2022-10-26T14:25:53;19.30;99.90
57058;DHT22;55017;52.848;6.748;2022-10-26T14:28:24;19.20;99.90
57058;DHT22;55017;52.848;6.748;2022-10-26T14:30:50;19.20;99.90
57058;DHT22;55017;52.848;6.748;2022-10-26T14:33:17;19.20;99.90
57058;DHT22;55017;52.848;6.748;2022-10-26T14:35:44;19.00;99.90
57058;DHT22;55017;52.848;6.748;2022-10-26T14:38:33;19.00;99.90
57058;DHT22;55017;52.848;6.748;2022-10-26T14:41:02;18.90;99.90
57058;DHT22;55017;52.848;6.748;2022-10-26T14:43:27;18.80;99.90
57058;DHT22;55017;52.848;6.748;2022-10-26T14:45:53;18.70;99.90
57058;DHT22;55017;52.848;6.748;2022-10-26T14:48:26;18.60;99.90
57058;DHT22;55017;52.848;6.748;2022-10-26T14:51:14;18.60;99.90
57058;DHT22;55017;52.848;6.748;2022-10-26T14:53:50;18.60;99.90
57058;DHT22;55017;52.848;6.748;2022-10-26T14:58:56;18.40;99.90
57058;DHT22;55017;52.848;6.748;2022-10-26T15:01:23;18.40;99.90
57058;DHT22;55017;52.848;6.748;2022-10-26T15:03:55;18.30;99.90
57058;DHT22;55017;52.848;6.748;2022-10-26T15:09:01;18.20;99.90
57058;DHT22;55017;52.848;6.748;2022-10-26T15:11:31;18.20;99.90
57058;DHT22;55017;52.848;6.748;2022-10-26T15:13:57;18.10;99.90
57058;DHT22;55017;52.848;6.748;2022-10-26T15:16:29;18.10;99.90
57058;DHT22;55017;52.848;6.748;2022-10-26T15:19:00;18.10;99.90
57058;DHT22;55017;52.848;6.748;2022-10-26T15:21:44;18.00;99.90
57058;DHT22;55017;52.848;6.748;2022-10-26T15:24:25;18.00;99.90
57058;DHT22;55017;52.848;6.748;2022-10-26T15:26:51;18.00;99.90
57058;DHT22;55017;52.848;6.748;2022-10-26T15:29:36;17.90;99.90
57058;DHT22;55017;52.848;6.748;2022-10-26T15:32:05;17.80;99.90
57058;DHT22;55017;52.848;6.748;2022-10-26T15:34:40;17.70;99.90
57058;DHT22;55017;52.848;6.748;2022-10-26T15:37:07;17.70;99.90
57058;DHT22;55017;52.848;6.748;2022-10-26T15:39:33;17.70;99.90
57058;DHT22;55017;52.848;6.748;2022-10-26T15:41:58;17.70;99.90
57058;DHT22;55017;52.848;6.748;2022-10-26T15:44:24;17.60;99.90
57058;DHT22;55017;52.848;6.748;2022-10-26T15:46:50;17.50;99.90
57058;DHT22;55017;52.848;6.748;2022-10-26T15:49:19;17.50;99.90
57058;DHT22;55017;52.848;6.748;2022-10-26T15:51:47;17.50;99.90
57058;DHT22;55017;52.848;6.748;2022-10-26T15:54:13;17.40;99.90
57058;DHT22;55017;52.848;6.748;2022-10-26T15:56:39;17.40;99.90
57058;DHT22;55017;52.848;6.748;2022-10-26T15:59:12;17.40;99.90
57058;DHT22;55017;52.848;6.748;2022-10-26T16:01:38;17.10;99.90
57058;DHT22;55017;52.848;6.748;2022-10-26T16:04:03;17.10;99.90
57058;DHT22;55017;52.848;6.748;2022-10-26T16:06:32;17.20;99.90
57058;DHT22;55017;52.848;6.748;2022-10-26T16:09:04;17.30;99.90
57058;DHT22;55017;52.848;6.748;2022-10-26T16:11:30;17.10;99.90
57058;DHT22;55017;52.848;6.748;2022-10-26T16:13:56;17.10;99.90
57058;DHT22;55017;52.848;6.748;2022-10-26T16:16:21;17.00;99.90
57058;DHT22;55017;52.848;6.748;2022-10-26T16:18:51;17.00;99.90
57058;DHT22;55017;52.848;6.748;2022-10-26T16:21:19;17.00;99.90
57058;DHT22;55017;52.848;6.748;2022-10-26T16:23:46;16.80;99.90
57058;DHT22;55017;52.848;6.748;2022-10-26T16:26:12;16.80;99.90
57058;DHT22;55017;52.848;6.748;2022-10-26T16:28:38;16.70;99.90
57058;DHT22;55017;52.848;6.748;2022-10-26T16:31:09;16.60;99.90
57058;DHT22;55017;52.848;6.748;2022-10-26T16:33:36;16.60;99.90
57058;DHT22;55017;52.848;6.748;2022-10-26T16:36:02;16.70;99.90
57058;DHT22;55017;52.848;6.748;2022-10-26T16:38:30;16.50;99.90
57058;DHT22;55017;52.848;6.748;2022-10-26T16:41:05;16.40;99.90
57058;DHT22;55017;52.848;6.748;2022-10-26T16:43:33;16.30;99.90
57058;DHT22;55017;52.848;6.748;2022-10-26T16:45:59;16.30;99.90
57058;DHT22;55017;52.848;6.748;2022-10-26T16:48:28;16.30;99.90
57058;DHT22;55017;52.848;6.748;2022-10-26T16:50:54;16.30;99.90
57058;DHT22;55017;52.848;6.748;2022-10-26T16:53:19;16.30;99.90
57058;DHT22;55017;52.848;6.748;2022-10-26T16:55:45;16.30;99.90
57058;DHT22;55017;52.848;6.748;2022-10-26T16:58:11;16.30;99.90
57058;DHT22;55017;52.848;6.748;2022-10-26T17:00:37;16.40;99.90
57058;DHT22;55017;52.848;6.748;2022-10-26T17:03:03;16.40;99.90
57058;DHT22;55017;52.848;6.748;2022-10-26T17:05:29;16.50;99.90
57058;DHT22;55017;52.848;6.748;2022-10-26T17:07:55;16.40;99.90
57058;DHT22;55017;52.848;6.748;2022-10-26T17:10:21;16.50;99.90
57058;DHT22;55017;52.848;6.748;2022-10-26T17:12:46;16.50;99.90
57058;DHT22;55017;52.848;6.748;2022-10-26T17:15:12;16.50;99.90
57058;DHT22;55017;52.848;6.748;2022-10-26T17:17:38;16.60;99.90
57058;DHT22;55017;52.848;6.748;2022-10-26T17:20:04;16.70;99.90
57058;DHT22;55017;52.848;6.748;2022-10-26T17:22:30;16.60;99.90
57058;DHT22;55017;52.848;6.748;2022-10-26T17:24:55;16.60;99.90
57058;DHT22;55017;52.848;6.748;2022-10-26T17:27:21;16.60;99.90
57058;DHT22;55017;52.848;6.748;2022-10-26T17:29:47;16.60;99.90
57058;DHT22;55017;52.848;6.748;2022-10-26T17:32:14;16.50;99.90
57058;DHT22;55017;52.848;6.748;2022-10-26T17:34:40;16.50;99.90
57058;DHT22;55017;52.848;6.748;2022-10-26T17:37:06;16.50;99.90
57058;DHT22;55017;52.848;6.748;2022-10-26T17:39:31;16.40;99.90